Hauptseite
METAR-TAF:

METAR-TAF

Flughäfen :

Irkutsk, Russland

Flughafen Irkutsk

Breite: 52-16N, Länge: 104-19E, Höhe: 513 m

Beobachtung

Neuester Wetterbericht von vor 35 Minuten, um 18:30 UTC
Wind 4 kt aus Ost/Südost
Temperatur 5°C
Luftfeuchtigkeit 70%
Luftdruck 1009 hPa
Sichtweite 10 km oder mehr
keine Wolken unter 1500 m und keine Kumulonimbus oder Gewitterwolken

METAR: UIII 291830Z 11002MPS CAVOK 05/00 Q1009 R12/60D NOSIG RMK QFE715/0953

Zeit: 03:05 (19:05 UTC)

Prognose

Neuester Wetterbericht von vor 2 Stunden und 5 Minuten, um 17:00 UTC
Gültige Prognose vom 29 um 18 UTC bis 30 um 18 UTC
Wind 6 kt aus Süd/Südost
Sichtweite 10 km oder mehr
Aufgelockert bewölkt in der Höhe von 2000 ft, Kumulonimbus.

TAF: UIII 291700Z 2918/3018 16003MPS 9999 SCT020CB

Wetterbeobachtungen und Prognosen von mehr als 4000 Flughäfen (METAR und TAF Bericht).

Die verfügbaren Stationen werden durch gelbe und rote Markierungen auf der Karte dargestellt.

Führen Sie die Maus auf sie, um den Namen der Station zu sehen.

Darauf klicken, um die Beobachtung von Wetterbeobachtungen und Prognosen zu sehen.

Um die Karte zu ändern : klicken Sie auf den grünen Tasten mit einem schwarzen Kreuz Zum Vergrößern, auf den grünen Button mit einem Gedankenstrich zu verkleinern, oder auf die grünen Pfeile für benachbarte Karten.


METAR-TAF: